Time;durP1;ratioP1;P1;durP2;ratioP2;P2;SDS_P1;SDS_P2;PMS_P1;PMS_P2;Temp;Humidity;BMP_temperature;BMP_pressure;BME280_temperature;BME280_humidity;BME280_pressure;Samples;Min_cycle;Max_cycle;Signal;HPM_P1;HPM_P2
2023/04/08 00:00:34;;;;;;;0.70;0.70;;;;;;;9.40;77.18;99637.53;5033154;28;20575;-61
2023/04/08 00:03:01;;;;;;;0.83;0.83;;;;;;;9.33;78.05;99641.13;5033235;28;20221;-60
2023/04/08 00:05:28;;;;;;;0.50;0.50;;;;;;;9.32;78.32;99644.53;5032960;28;20198;-60
2023/04/08 00:07:55;;;;;;;0.73;0.73;;;;;;;9.31;78.84;99634.31;5016754;28;20202;-61
2023/04/08 00:10:23;;;;;;;0.60;0.60;;;;;;;9.22;78.74;99637.94;5013109;28;20205;-61
2023/04/08 00:12:50;;;;;;;0.60;0.60;;;;;;;9.15;78.29;99650.88;5013558;28;20658;-61
2023/04/08 00:15:17;;;;;;;0.57;0.57;;;;;;;9.02;79.10;99650.28;5013178;28;20202;-61
2023/04/08 00:17:44;;;;;;;0.80;0.80;;;;;;;8.99;78.88;99652.91;5013094;28;20681;-60
2023/04/08 00:20:11;;;;;;;0.50;0.50;;;;;;;8.91;79.92;99645.41;5013081;28;20210;-61
2023/04/08 00:22:38;;;;;;;0.67;0.67;;;;;;;8.94;80.48;99647.03;5013033;28;20289;-61
2023/04/08 00:25:08;;;;;;;0.50;0.50;;;;;;;9.01;80.22;99652.88;5013253;28;20210;-60
2023/04/08 00:27:36;;;;;;;0.60;0.60;;;;;;;9.09;79.53;99656.97;5013107;28;20679;-61
2023/04/08 00:30:03;;;;;;;0.70;0.70;;;;;;;9.14;79.14;99650.06;5017346;28;20198;-61
2023/04/08 00:32:30;;;;;;;0.90;0.90;;;;;;;9.09;78.32;99646.72;5025447;28;20193;-61
2023/04/08 00:34:56;;;;;;;0.70;0.70;;;;;;;8.95;77.51;99658.94;5017192;28;20210;-61
2023/04/08 00:37:23;;;;;;;0.50;0.50;;;;;;;8.79;77.66;99652.44;5012813;28;20214;-60
2023/04/08 00:39:52;;;;;;;1.67;1.57;;;;;;;8.57;78.31;99625.59;5012740;28;20695;-60
2023/04/08 00:42:19;;;;;;;0.80;0.80;;;;;;;8.62;78.66;99659.59;5026817;28;20216;-61
2023/04/08 00:44:48;;;;;;;0.77;0.77;;;;;;;8.52;80.25;99658.06;5032263;28;20240;-61
2023/04/08 00:47:16;;;;;;;0.50;0.50;;;;;;;8.43;82.37;99659.88;5032237;28;20198;-60
2023/04/08 00:49:43;;;;;;;0.57;0.57;;;;;;;8.31;84.23;99660.09;5032271;28;20701;-60
2023/04/08 00:52:10;;;;;;;0.60;0.60;;;;;;;8.32;85.63;99666.91;5032634;28;20201;-62
2023/04/08 00:54:37;;;;;;;0.80;0.80;;;;;;;8.34;85.87;99661.75;5032110;28;20727;-61
2023/04/08 00:57:04;;;;;;;0.50;0.50;;;;;;;8.22;86.71;99664.50;5032245;28;20640;-61
2023/04/08 00:59:32;;;;;;;0.60;0.60;;;;;;;8.21;86.97;99666.19;5032120;28;20575;-60
2023/04/08 01:02:08;;;;;;;1.13;1.13;;;;;;;8.21;87.23;99663.66;5030264;28;20214;-60
2023/04/08 01:04:44;;;;;;;0.53;0.53;;;;;;;8.19;86.72;99660.28;5015275;28;20197;-60
2023/04/08 01:07:15;;;;;;;0.63;0.63;;;;;;;8.20;87.25;99672.19;5014922;28;20215;-60
2023/04/08 01:09:46;;;;;;;0.60;0.60;;;;;;;8.33;86.84;99681.38;5022836;28;20284;-60
2023/04/08 01:12:19;;;;;;;0.70;0.70;;;;;;;8.39;86.95;99676.16;5012192;28;20201;-60
2023/04/08 01:14:47;;;;;;;0.50;0.50;;;;;;;8.35;86.67;99674.53;5014453;28;20198;-61
2023/04/08 01:17:19;;;;;;;0.67;0.67;;;;;;;8.36;86.73;99678.78;5011973;28;20221;-60
2023/04/08 01:19:47;;;;;;;1.53;1.43;;;;;;;8.31;86.40;99678.00;5028655;28;20212;-60
2023/04/08 01:22:26;;;;;;;1.37;1.37;;;;;;;8.23;86.65;99677.25;5028756;28;20213;-61
2023/04/08 01:25:00;;;;;;;1.07;1.00;;;;;;;8.10;87.52;99665.56;5011898;28;20627;-61
2023/04/08 01:27:31;;;;;;;0.70;0.70;;;;;;;8.12;87.84;99674.03;5011946;28;20294;-60
2023/04/08 01:29:59;;;;;;;0.50;0.50;;;;;;;8.12;88.40;99679.13;5011659;28;20201;-60
2023/04/08 01:32:27;;;;;;;2.00;1.33;;;;;;;8.07;88.34;99675.81;5019531;28;20220;-61
2023/04/08 01:34:55;;;;;;;0.50;0.50;;;;;;;8.02;89.16;99677.56;5031187;28;20205;-60
2023/04/08 01:37:22;;;;;;;0.50;0.50;;;;;;;8.03;90.00;99674.16;5031378;28;20252;-61
2023/04/08 01:39:50;;;;;;;0.60;0.60;;;;;;;8.05;90.70;99677.53;5013251;28;20678;-61
2023/04/08 01:42:18;;;;;;;0.50;0.50;;;;;;;8.00;92.13;99674.22;5030833;28;20197;-60
2023/04/08 01:44:47;;;;;;;0.50;0.50;;;;;;;8.03;93.07;99681.81;5031577;28;20684;-61
2023/04/08 01:47:14;;;;;;;0.80;0.80;;;;;;;8.07;93.46;99675.81;5031069;28;20205;-60
2023/04/08 01:49:42;;;;;;;0.53;0.53;;;;;;;8.06;95.04;99684.34;5031129;28;20240;-61
2023/04/08 01:52:09;;;;;;;0.70;0.70;;;;;;;8.00;96.80;99686.97;5016459;28;20202;-61
2023/04/08 01:54:36;;;;;;;0.40;0.40;;;;;;;8.01;98.72;99686.13;5012858;28;20256;-60
2023/04/08 01:57:07;;;;;;;0.60;0.60;;;;;;;8.08;100.00;99677.47;5011160;28;20218;-61
2023/04/08 01:59:35;;;;;;;0.93;0.93;;;;;;;7.94;100.00;99651.34;5011411;28;20194;-60
2023/04/08 02:02:06;;;;;;;0.70;0.70;;;;;;;8.06;100.00;99674.13;5013068;28;20285;-60
2023/04/08 02:04:34;;;;;;;0.67;0.67;;;;;;;7.91;100.00;99670.09;5028862;28;20197;-61
2023/04/08 02:07:01;;;;;;;0.60;0.60;;;;;;;8.07;100.00;99701.34;5031143;28;20624;-60
2023/04/08 02:09:28;;;;;;;0.60;0.60;;;;;;;8.05;100.00;99708.16;5030698;28;20201;-61
2023/04/08 02:11:56;;;;;;;0.63;0.63;;;;;;;8.09;100.00;99704.72;5031032;28;20201;-61
2023/04/08 02:14:24;;;;;;;1.90;1.90;;;;;;;8.08;100.00;99695.34;5030708;28;20232;-61
2023/04/08 02:16:54;;;;;;;1.57;1.57;;;;;;;8.09;100.00;99699.59;5030702;28;20304;-60
2023/04/08 02:19:29;;;;;;;0.60;0.60;;;;;;;7.94;100.00;99674.31;5030842;28;20657;-60
2023/04/08 02:22:02;;;;;;;0.47;0.47;;;;;;;8.08;100.00;99705.56;5014352;28;20248;-60
2023/04/08 02:24:30;;;;;;;0.93;0.93;;;;;;;8.04;100.00;99706.50;5015230;28;20709;-61
2023/04/08 02:26:57;;;;;;;0.50;0.50;;;;;;;8.02;100.00;99705.66;5010965;28;20728;-60
2023/04/08 02:29:25;;;;;;;0.60;0.60;;;;;;;8.03;100.00;99699.69;5010971;28;20264;-60
2023/04/08 02:31:53;;;;;;;0.60;0.60;;;;;;;8.02;100.00;99697.16;5025997;28;20570;-60
2023/04/08 02:34:22;;;;;;;0.70;0.70;;;;;;;8.09;100.00;99704.72;5030600;28;20194;-60
2023/04/08 02:36:51;;;;;;;0.60;0.60;;;;;;;8.15;100.00;99703.75;5030723;28;20271;-60
2023/04/08 02:39:18;;;;;;;0.97;0.97;;;;;;;8.15;100.00;99704.59;5030670;28;20201;-60
2023/04/08 02:41:44;;;;;;;0.67;0.67;;;;;;;8.10;100.00;99710.66;5030569;28;20615;-60
2023/04/08 02:44:11;;;;;;;0.70;0.70;;;;;;;8.09;100.00;99704.72;5030627;28;20703;-60
2023/04/08 02:46:38;;;;;;;0.60;0.60;;;;;;;8.09;100.00;99709.81;5030399;28;20202;-60
2023/04/08 02:49:05;;;;;;;0.70;0.70;;;;;;;8.12;100.00;99707.22;5030462;28;20201;-60
2023/04/08 02:51:32;;;;;;;0.87;0.87;;;;;;;8.09;100.00;99708.97;5026223;28;20202;-60
2023/04/08 02:54:00;;;;;;;0.53;0.53;;;;;;;8.04;100.00;99706.50;5010817;28;20386;-60
2023/04/08 02:56:27;;;;;;;0.70;0.70;;;;;;;8.07;100.00;99714.13;5010330;28;20217;-60
2023/04/08 02:58:54;;;;;;;0.60;0.60;;;;;;;7.96;100.00;99704.91;5010964;28;20642;-60
2023/04/08 03:01:21;;;;;;;0.50;0.50;;;;;;;8.06;100.00;99721.78;5013483;28;20286;-60
2023/04/08 03:03:47;;;;;;;0.60;0.60;;;;;;;7.99;100.00;99723.59;5025097;28;20252;-60
2023/04/08 03:06:14;;;;;;;0.63;0.63;;;;;;;8.00;100.00;99725.28;5032360;28;20208;-60
2023/04/08 03:08:41;;;;;;;0.50;0.50;;;;;;;8.09;100.00;99735.34;5034005;28;20197;-60
2023/04/08 03:11:09;;;;;;;0.60;0.60;;;;;;;8.10;100.00;99737.03;5034268;28;20255;-60
2023/04/08 03:13:36;;;;;;;0.87;0.87;;;;;;;8.03;100.00;99732.88;5033922;28;20213;-61
2023/04/08 03:16:02;;;;;;;0.50;0.50;;;;;;;8.02;100.00;99733.75;5034325;28;20224;-60
2023/04/08 03:18:29;;;;;;;0.50;0.50;;;;;;;8.06;100.00;99735.41;5034256;28;20193;-60
2023/04/08 03:20:56;;;;;;;0.60;0.60;;;;;;;8.00;100.00;99735.50;5034198;28;20567;-60
2023/04/08 03:23:23;;;;;;;0.60;0.60;;;;;;;8.00;100.00;99734.63;5031092;28;20215;-61
2023/04/08 03:25:49;;;;;;;0.40;0.40;;;;;;;7.92;100.00;99733.03;5034004;28;20197;-61
2023/04/08 03:28:18;;;;;;;0.60;0.60;;;;;;;7.90;100.00;99723.72;5033885;28;20198;-60
2023/04/08 03:30:44;;;;;;;0.53;0.53;;;;;;;8.01;100.00;99732.06;5033923;28;20197;-60
2023/04/08 03:33:11;;;;;;;0.50;0.50;;;;;;;7.95;100.00;99727.03;5033883;28;20200;-60
2023/04/08 03:35:38;;;;;;;0.60;0.60;;;;;;;7.95;100.00;99736.44;5033913;28;20197;-60
2023/04/08 03:38:05;;;;;;;0.50;0.50;;;;;;;7.91;100.00;99730.53;5033486;28;20214;-60
2023/04/08 03:40:32;;;;;;;0.50;0.50;;;;;;;7.89;100.00;99732.22;5033691;28;20197;-60
2023/04/08 03:42:58;;;;;;;0.70;0.70;;;;;;;7.88;100.00;99745.88;5033515;28;20264;-60
2023/04/08 03:45:26;;;;;;;0.57;0.57;;;;;;;7.88;100.00;99740.78;5033539;28;20213;-60
2023/04/08 03:47:53;;;;;;;0.60;0.60;;;;;;;7.79;100.00;99735.78;5033457;28;20197;-61
2023/04/08 03:50:20;;;;;;;0.50;0.50;;;;;;;7.81;100.00;99750.22;5033330;28;20555;-60
2023/04/08 03:52:47;;;;;;;0.63;0.63;;;;;;;7.86;100.00;99743.34;5034000;28;20201;-60
2023/04/08 03:55:13;;;;;;;0.70;0.70;;;;;;;7.82;100.00;99745.94;5033194;28;20205;-60
2023/04/08 03:57:40;;;;;;;0.50;0.50;;;;;;;7.83;100.00;99753.59;5033482;28;20213;-60
2023/04/08 04:00:08;;;;;;;0.73;0.73;;;;;;;7.82;100.00;99751.03;5033384;28;20275;-60
2023/04/08 04:02:36;;;;;;;0.60;0.60;;;;;;;7.84;100.00;99751.88;5033048;28;20279;-61
2023/04/08 04:05:03;;;;;;;0.70;0.70;;;;;;;7.82;100.00;99751.03;5033197;28;20670;-60
2023/04/08 04:07:30;;;;;;;0.60;0.60;;;;;;;7.85;100.00;99756.13;5033462;28;20272;-61
2023/04/08 04:09:57;;;;;;;0.60;0.60;;;;;;;7.84;100.00;99754.44;5032703;28;20284;-61
2023/04/08 04:12:24;;;;;;;0.70;0.70;;;;;;;7.84;100.00;99754.44;5033162;28;20197;-60
2023/04/08 04:14:50;;;;;;;0.57;0.57;;;;;;;7.82;100.00;99756.16;5033219;28;20711;-60
2023/04/08 04:17:17;;;;;;;0.50;0.50;;;;;;;7.82;100.00;99756.16;5031640;28;20685;-60
2023/04/08 04:19:45;;;;;;;0.90;0.90;;;;;;;7.89;100.00;99757.75;5032817;28;20201;-60
2023/04/08 04:22:12;;;;;;;0.80;0.80;;;;;;;7.93;100.00;99764.50;5033190;28;20673;-60
2023/04/08 04:24:39;;;;;;;0.57;0.57;;;;;;;7.86;100.00;99758.66;5032543;28;20193;-60
2023/04/08 04:27:06;;;;;;;0.50;0.50;;;;;;;7.93;100.00;99767.06;5032574;28;20198;-60
2023/04/08 04:29:32;;;;;;;0.50;0.50;;;;;;;7.89;100.00;99767.97;5032951;28;20632;-60
2023/04/08 04:31:59;;;;;;;0.67;0.67;;;;;;;7.86;100.00;99765.47;5032904;28;20697;-60
2023/04/08 04:34:26;;;;;;;0.90;0.90;;;;;;;7.87;100.00;99760.34;5032709;28;20244;-60
2023/04/08 04:36:54;;;;;;;0.50;0.50;;;;;;;7.91;100.00;99762.00;5032287;28;20221;-60
2023/04/08 04:39:21;;;;;;;0.60;0.60;;;;;;;7.91;100.00;99761.16;5032607;28;20697;-60
2023/04/08 04:41:48;;;;;;;0.73;0.73;;;;;;;7.95;100.00;99770.44;5032562;28;20201;-60
2023/04/08 04:44:15;;;;;;;0.53;0.53;;;;;;;7.99;100.00;99761.03;5032444;28;20208;-60
2023/04/08 04:46:41;;;;;;;0.50;0.50;;;;;;;8.03;100.00;99760.97;5032330;28;20201;-61
2023/04/08 04:49:08;;;;;;;0.60;0.60;;;;;;;8.05;100.00;99764.34;5031175;28;20204;-60
2023/04/08 04:51:35;;;;;;;0.70;0.70;;;;;;;7.99;100.00;99773.78;5032114;28;20194;-60
2023/04/08 04:54:03;;;;;;;0.50;0.50;;;;;;;8.02;100.00;99773.75;5032667;28;20644;-61
2023/04/08 04:56:30;;;;;;;0.80;0.80;;;;;;;7.97;100.00;99771.28;5032146;28;20202;-61
2023/04/08 04:58:57;;;;;;;0.50;0.50;;;;;;;8.01;100.00;99777.19;5032045;28;20275;-60
2023/04/08 05:01:23;;;;;;;1.43;1.27;;;;;;;8.00;100.00;99776.34;5031864;28;20201;-60
2023/04/08 05:03:50;;;;;;;0.50;0.50;;;;;;;7.98;100.00;99777.22;5031819;28;20228;-60
2023/04/08 05:06:17;;;;;;;0.60;0.60;;;;;;;8.01;100.00;99769.53;5032277;28;20204;-60
2023/04/08 05:08:44;;;;;;;1.00;1.00;;;;;;;8.08;100.00;99769.41;5032023;28;20654;-60
2023/04/08 05:11:12;;;;;;;0.57;0.57;;;;;;;8.13;100.00;99775.31;5032009;28;20251;-60
2023/04/08 05:13:39;;;;;;;0.70;0.70;;;;;;;8.16;100.00;99782.06;5031833;28;20259;-60
2023/04/08 05:16:06;;;;;;;0.50;0.50;;;;;;;8.27;100.00;99785.31;5031837;28;20201;-60
2023/04/08 05:18:33;;;;;;;0.77;0.77;;;;;;;8.26;100.00;99779.38;5031590;28;20217;-60
2023/04/08 05:21:00;;;;;;;0.50;0.50;;;;;;;8.32;100.00;99788.66;5032078;28;20200;-60
2023/04/08 05:23:26;;;;;;;0.77;0.77;;;;;;;8.32;100.00;99789.53;5031161;28;20292;-61
2023/04/08 05:25:53;;;;;;;0.90;0.90;;;;;;;8.31;100.00;99800.59;5031559;28;20723;-60
2023/04/08 05:28:22;;;;;;;0.60;0.60;;;;;;;8.21;100.00;99780.28;5031015;28;20670;-60
2023/04/08 05:30:50;;;;;;;1.00;0.80;;;;;;;8.35;100.00;99799.69;5031681;28;20640;-61
2023/04/08 05:33:17;;;;;;;0.93;0.93;;;;;;;8.40;100.00;99807.28;5031844;28;20725;-60
2023/04/08 05:35:43;;;;;;;0.40;0.40;;;;;;;8.45;100.00;99800.41;5031483;28;20197;-60
2023/04/08 05:38:10;;;;;;;0.60;0.60;;;;;;;8.49;100.00;99801.19;5031661;28;20221;-60
2023/04/08 05:40:37;;;;;;;0.50;0.50;;;;;;;8.57;100.00;99804.47;5031542;28;20581;-60
2023/04/08 05:43:04;;;;;;;1.80;1.70;;;;;;;8.65;100.00;99810.31;5031498;28;20193;-60
2023/04/08 05:45:32;;;;;;;1.53;1.40;;;;;;;8.73;100.00;99803.34;5031550;28;20224;-60
2023/04/08 05:47:59;;;;;;;0.80;0.80;;;;;;;8.72;100.00;99804.25;5031217;28;20205;-60
2023/04/08 05:50:26;;;;;;;0.90;0.90;;;;;;;8.68;100.00;99807.69;5031233;28;20198;-60
2023/04/08 05:52:52;;;;;;;0.60;0.60;;;;;;;8.62;100.00;99806.09;5031119;28;20193;-61
2023/04/08 05:55:19;;;;;;;0.83;0.83;;;;;;;8.64;100.00;99811.16;5030901;28;20205;-60
2023/04/08 05:57:46;;;;;;;0.60;0.60;;;;;;;8.65;100.00;99810.31;5030889;28;20229;-60
2023/04/08 06:00:13;;;;;;;0.93;0.93;;;;;;;8.67;100.00;99811.13;5031213;28;20209;-60
2023/04/08 06:02:41;;;;;;;0.50;0.50;;;;;;;8.63;100.00;99805.22;5030887;28;20307;-61
2023/04/08 06:05:09;;;;;;;0.63;0.63;;;;;;;8.69;100.00;99805.09;5031171;28;20681;-60
2023/04/08 06:07:35;;;;;;;0.60;0.60;;;;;;;8.80;100.00;99802.38;5031147;28;20198;-60
2023/04/08 06:10:04;;;;;;;0.60;0.60;;;;;;;8.80;100.00;99798.13;5030743;28;20197;-60
2023/04/08 06:12:30;;;;;;;0.60;0.60;;;;;;;8.84;100.00;99809.13;5011352;28;20566;-60
2023/04/08 06:14:59;;;;;;;0.50;0.50;;;;;;;8.87;100.00;99806.53;5011355;28;20206;-60
2023/04/08 06:17:25;;;;;;;0.63;0.63;;;;;;;8.95;100.00;99809.78;5011291;28;20597;-61
2023/04/08 06:19:53;;;;;;;0.80;0.80;;;;;;;9.05;100.00;99808.75;5010956;28;20205;-60
2023/04/08 06:22:20;;;;;;;6.47;1.30;;;;;;;9.12;100.00;99812.06;5012908;28;20263;-61
2023/04/08 06:24:47;;;;;;;0.60;0.60;;;;;;;9.11;100.00;99807.84;5011434;28;20194;-60
2023/04/08 06:27:14;;;;;;;1.73;1.73;;;;;;;9.12;100.00;99809.50;5014004;28;20206;-60
2023/04/08 06:29:41;;;;;;;0.67;0.67;;;;;;;9.25;100.00;99804.13;5011150;28;20304;-61
2023/04/08 06:32:08;;;;;;;0.50;0.50;;;;;;;9.43;100.00;99810.66;5015716;28;20197;-60
2023/04/08 06:34:35;;;;;;;0.97;0.97;;;;;;;9.55;100.00;99804.44;5019924;28;20206;-60
2023/04/08 06:37:03;;;;;;;0.50;0.50;;;;;;;9.60;100.00;99807.72;5010787;28;20197;-60
2023/04/08 06:39:30;;;;;;;0.53;0.53;;;;;;;9.82;100.00;99806.47;5014448;28;20218;-60
2023/04/08 06:41:56;;;;;;;0.40;0.40;;;;;;;10.00;100.00;99809.47;5014227;28;20277;-60
2023/04/08 06:44:24;;;;;;;0.63;0.63;;;;;;;10.04;100.00;99807.69;5015053;28;20201;-60
2023/04/08 06:46:51;;;;;;;0.70;0.70;;;;;;;10.21;100.00;99813.28;5014951;28;20282;-60
2023/04/08 06:49:17;;;;;;;0.60;0.60;;;;;;;10.16;100.00;99804.03;5014925;28;20679;-60
2023/04/08 06:51:44;;;;;;;0.60;0.60;;;;;;;10.04;100.00;99784.63;5017219;28;20260;-60
2023/04/08 06:54:12;;;;;;;0.50;0.50;;;;;;;10.21;100.00;99803.06;5014952;28;20573;-60
2023/04/08 06:56:39;;;;;;;0.70;0.70;;;;;;;10.37;100.00;99803.56;5014927;28;20198;-61
2023/04/08 06:59:06;;;;;;;0.60;0.60;;;;;;;10.50;100.00;99800.66;5014676;28;20287;-61
2023/04/08 07:01:32;;;;;;;1.70;1.60;;;;;;;10.72;99.67;99805.28;5014789;28;20559;-61
2023/04/08 07:04:01;;;;;;;2.20;2.03;;;;;;;10.91;99.92;99798.84;5030629;28;20221;-60
2023/04/08 07:06:27;;;;;;;0.90;0.90;;;;;;;11.03;99.10;99803.66;5033744;28;20216;-61
2023/04/08 07:08:54;;;;;;;0.60;0.60;;;;;;;11.28;98.46;99804.69;5034241;28;20193;-61
2023/04/08 07:11:22;;;;;;;1.13;1.13;;;;;;;11.24;95.31;99794.56;5034076;28;20209;-61
2023/04/08 07:13:49;;;;;;;0.57;0.57;;;;;;;11.16;95.63;99812.72;5033860;28;20200;-61
2023/04/08 07:16:16;;;;;;;1.23;1.23;;;;;;;11.18;95.20;99818.63;5033656;28;20205;-61
2023/04/08 07:18:43;;;;;;;0.50;0.50;;;;;;;11.22;95.76;99821.97;5033791;28;20224;-60
2023/04/08 07:21:09;;;;;;;0.70;0.70;;;;;;;11.39;96.80;99819.81;5034190;28;20205;-60
2023/04/08 07:23:36;;;;;;;0.60;0.60;;;;;;;11.41;94.59;99818.03;5033088;28;20205;-60
2023/04/08 07:26:04;;;;;;;0.63;0.63;;;;;;;11.32;95.11;99819.13;5033794;28;20204;-61
2023/04/08 07:28:32;;;;;;;0.60;0.60;;;;;;;11.46;94.64;99821.34;5033674;28;20232;-60
2023/04/08 07:31:09;;;;;;;0.50;0.50;;;;;;;11.54;94.90;99819.38;5033920;28;20255;-60
2023/04/08 07:33:36;;;;;;;0.50;0.50;;;;;;;11.68;93.79;99821.59;5033538;28;20224;-61
2023/04/08 07:36:03;;;;;;;0.60;0.60;;;;;;;11.71;94.09;99814.66;5033635;28;20220;-61
2023/04/08 07:38:30;;;;;;;0.60;0.60;;;;;;;11.72;94.23;99818.09;5033499;28;20213;-61
2023/04/08 07:40:56;;;;;;;0.50;0.50;;;;;;;11.82;94.20;99814.38;5033694;28;20201;-61
2023/04/08 07:43:23;;;;;;;1.07;1.07;;;;;;;11.89;93.80;99811.56;5033236;28;20209;-60
2023/04/08 07:45:51;;;;;;;0.50;0.50;;;;;;;11.98;93.81;99819.03;5033482;28;20198;-60
2023/04/08 07:48:18;;;;;;;1.00;1.00;;;;;;;11.99;91.93;99814.69;5033721;28;20253;-60
2023/04/08 07:50:46;;;;;;;0.70;0.70;;;;;;;11.95;93.18;99823.41;5033651;28;20213;-60
2023/04/08 07:53:13;;;;;;;1.00;1.00;;;;;;;12.04;92.29;99813.72;5033290;28;20197;-61
2023/04/08 07:55:41;;;;;;;0.50;0.50;;;;;;;12.17;92.76;99816.75;5033242;28;20197;-61
2023/04/08 07:58:08;;;;;;;0.60;0.60;;;;;;;12.26;91.83;99813.91;5033317;28;20304;-61
2023/04/08 08:00:34;;;;;;;0.83;0.83;;;;;;;12.46;91.56;99819.28;5033005;28;20216;-61
2023/04/08 08:03:03;;;;;;;1.00;1.00;;;;;;;12.50;89.35;99823.41;5033016;28;20257;-61
2023/04/08 08:05:29;;;;;;;1.00;1.00;;;;;;;12.31;89.72;99827.44;5033490;28;20732;-61
2023/04/08 08:07:56;;;;;;;0.90;0.90;;;;;;;12.34;90.69;99827.34;5033149;28;20271;-60
2023/04/08 08:10:23;;;;;;;0.50;0.50;;;;;;;12.40;89.82;99828.91;5033237;28;20200;-61
2023/04/08 08:12:50;;;;;;;0.60;0.60;;;;;;;12.47;89.15;99831.22;5032945;28;20594;-61
2023/04/08 08:15:16;;;;;;;0.63;0.63;;;;;;;12.60;89.95;99822.25;5032808;28;20201;-61
2023/04/08 08:17:43;;;;;;;1.33;1.33;;;;;;;12.63;89.36;99831.63;5032793;28;20193;-61
2023/04/08 08:20:12;;;;;;;0.70;0.70;;;;;;;12.70;88.87;99827.94;5033204;28;20271;-61
2023/04/08 08:22:39;;;;;;;0.90;0.90;;;;;;;12.75;88.49;99826.06;5032939;28;20205;-61
2023/04/08 08:25:08;;;;;;;0.87;0.87;;;;;;;12.81;88.72;99827.59;5032916;28;20236;-61
2023/04/08 08:27:35;;;;;;;0.40;0.40;;;;;;;12.91;87.97;99826.41;5032165;28;20201;-60
2023/04/08 08:30:03;;;;;;;0.60;0.60;;;;;;;13.08;86.34;99824.13;5032658;28;20202;-61
2023/04/08 08:32:30;;;;;;;0.50;0.50;;;;;;;13.25;86.26;99824.41;5032761;28;20208;-61
2023/04/08 08:34:57;;;;;;;1.03;1.03;;;;;;;13.31;86.81;99805.34;5032360;28;20198;-61
2023/04/08 08:37:25;;;;;;;1.17;1.17;;;;;;;13.29;85.96;99818.28;5032678;28;20209;-61
2023/04/08 08:39:52;;;;;;;0.70;0.70;;;;;;;13.38;84.43;99815.38;5029836;28;20689;-61
2023/04/08 08:42:20;;;;;;;1.23;1.23;;;;;;;13.64;83.93;99824.75;5032471;28;20253;-61
2023/04/08 08:44:47;;;;;;;0.50;0.50;;;;;;;13.74;84.30;99810.66;5032344;28;20201;-61
2023/04/08 08:47:14;;;;;;;0.90;0.90;;;;;;;13.68;82.69;99814.28;5032497;28;20605;-60
2023/04/08 08:49:41;;;;;;;2.93;1.20;;;;;;;13.88;81.96;99817.88;5032333;28;20278;-61
2023/04/08 08:52:08;;;;;;;0.97;0.97;;;;;;;14.15;83.00;99811.69;5032198;28;20236;-61
2023/04/08 08:54:37;;;;;;;0.80;0.80;;;;;;;14.03;82.38;99809.56;5032153;28;20668;-61
2023/04/08 08:57:03;;;;;;;0.50;0.50;;;;;;;13.92;82.32;99814.28;5032034;28;20201;-61
2023/04/08 08:59:30;;;;;;;0.40;0.40;;;;;;;14.04;81.77;99806.09;5032259;28;20300;-61
2023/04/08 09:01:57;;;;;;;1.10;1.10;;;;;;;14.03;80.53;99812.13;5032210;28;20636;-61
2023/04/08 09:04:24;;;;;;;0.60;0.60;;;;;;;13.99;80.24;99818.34;5031110;28;20231;-60
2023/04/08 09:07:09;;;;;;;0.60;0.60;;;;;;;13.99;78.75;99810.59;5032045;28;20200;-61
2023/04/08 09:09:50;;;;;;;0.70;0.70;;;;;;;14.00;80.17;99802.78;5031731;28;20197;-61
2023/04/08 09:12:16;;;;;;;0.40;0.40;;;;;;;14.21;79.85;99811.47;5031703;28;20624;-61
2023/04/08 09:14:43;;;;;;;1.00;0.97;;;;;;;14.40;79.17;99809.88;5031926;28;20745;-61
2023/04/08 09:17:10;;;;;;;1.57;1.43;;;;;;;14.34;77.64;99807.53;5031754;28;20287;-61
2023/04/08 09:19:37;;;;;;;0.67;0.67;;;;;;;14.40;77.44;99811.63;5031687;28;20310;-61
2023/04/08 09:22:06;;;;;;;5.40;5.00;;;;;;;14.33;75.29;99804.97;5031909;28;20710;-61
2023/04/08 09:24:33;;;;;;;1.13;1.13;;;;;;;14.24;79.69;99793.28;5031753;28;20301;-61
2023/04/08 09:27:02;;;;;;;0.70;0.70;;;;;;;14.19;78.71;99803.78;5031873;28;20694;-61
2023/04/08 09:29:29;;;;;;;0.93;0.93;;;;;;;14.02;77.74;99802.75;5031460;28;20209;-61
2023/04/08 09:31:57;;;;;;;0.60;0.60;;;;;;;13.82;78.72;99818.09;5031461;28;20202;-61
2023/04/08 09:34:24;;;;;;;0.40;0.40;;;;;;;14.07;79.38;99809.41;5031260;28;20204;-62
2023/04/08 09:36:52;;;;;;;0.70;0.70;;;;;;;14.49;82.05;99796.63;5031834;28;20628;-64
2023/04/08 09:39:19;;;;;;;0.80;0.80;;;;;;;14.64;76.58;99810.63;5031215;28;20230;-64
2023/04/08 09:41:48;;;;;;;3.80;3.57;;;;;;;14.57;75.25;99810.03;5031578;28;20232;-64
2023/04/08 09:44:19;;;;;;;0.60;0.60;;;;;;;14.69;76.48;99804.41;5031203;28;20204;-64
2023/04/08 09:46:58;;;;;;;0.50;0.50;;;;;;;14.98;72.92;99808.38;5031350;28;20744;-64
2023/04/08 09:49:27;;;;;;;0.67;0.67;;;;;;;15.18;74.77;99798.06;5029449;28;20267;-64
2023/04/08 09:52:05;;;;;;;0.47;0.47;;;;;;;15.48;77.56;99801.06;5031409;28;20193;-64
2023/04/08 09:54:38;;;;;;;0.70;0.70;;;;;;;15.50;73.76;99809.59;5030878;28;20205;-64
2023/04/08 09:57:13;;;;;;;0.77;0.77;;;;;;;15.63;72.75;99805.59;5031184;28;20289;-64
2023/04/08 09:59:57;;;;;;;0.57;0.57;;;;;;;15.73;70.96;99813.78;5031179;28;20210;-64
2023/04/08 10:02:30;;;;;;;0.77;0.77;;;;;;;15.70;71.69;99817.31;5030713;28;20237;-64
2023/04/08 10:05:02;;;;;;;0.70;0.70;;;;;;;15.75;68.32;99812.78;5031103;28;20263;-64
2023/04/08 10:07:30;;;;;;;0.40;0.40;;;;;;;15.63;68.51;99796.97;5028403;28;20198;-64
2023/04/08 10:09:57;;;;;;;1.20;1.20;;;;;;;15.46;67.91;99797.69;5030961;28;20194;-64
2023/04/08 10:12:24;;;;;;;0.80;0.80;;;;;;;15.40;69.18;99803.13;5030820;28;20247;-64
2023/04/08 10:15:24;;;;;;;0.50;0.50;;;;;;;15.49;68.21;99807.91;5031030;28;20620;-64
2023/04/08 10:17:52;;;;;;;0.50;0.50;;;;;;;15.39;68.63;99804.03;5030848;28;20209;-64
2023/04/08 10:20:41;;;;;;;0.50;0.50;;;;;;;15.52;70.43;99789.69;5030622;28;20223;-65
2023/04/08 10:23:09;;;;;;;0.50;0.50;;;;;;;15.61;68.12;99799.63;5030862;28;20201;-63
2023/04/08 10:25:37;;;;;;;0.77;0.77;;;;;;;15.74;67.54;99790.41;5030438;28;20582;-62
2023/04/08 10:28:28;;;;;;;0.70;0.70;;;;;;;15.93;67.32;99787.84;5030872;28;20251;-62
2023/04/08 10:30:57;;;;;;;0.50;0.50;;;;;;;15.86;67.36;99770.94;5029715;28;20665;-62
2023/04/08 10:33:31;;;;;;;0.40;0.40;;;;;;;16.17;67.61;99778.09;5030397;28;20201;-63
2023/04/08 10:36:01;;;;;;;0.50;0.50;;;;;;;16.26;68.14;99775.94;5030689;28;20292;-62
2023/04/08 10:38:28;;;;;;;0.77;0.77;;;;;;;16.28;66.57;99781.03;5030243;28;20193;-62
2023/04/08 10:40:55;;;;;;;0.50;0.50;;;;;;;16.36;67.21;99773.72;5030351;28;20205;-62
2023/04/08 10:43:23;;;;;;;0.50;0.50;;;;;;;16.32;67.06;99767.03;5028296;28;20208;-62
2023/04/08 10:45:50;;;;;;;0.70;0.70;;;;;;;16.42;66.91;99770.84;5030201;28;20208;-62
2023/04/08 10:48:21;;;;;;;0.50;0.50;;;;;;;16.55;66.90;99765.94;5030513;28;20232;-62
2023/04/08 10:50:54;;;;;;;1.27;1.27;;;;;;;16.46;65.98;99762.03;5030311;28;20287;-62
2023/04/08 10:53:27;;;;;;;0.60;0.60;;;;;;;16.41;66.23;99751.09;5030262;28;20252;-62
2023/04/08 10:55:53;;;;;;;0.40;0.40;;;;;;;16.44;67.42;99750.94;5030223;28;20727;-62
2023/04/08 10:58:20;;;;;;;0.50;0.50;;;;;;;16.52;65.82;99751.38;5030596;28;20669;-62
2023/04/08 11:00:47;;;;;;;0.50;0.50;;;;;;;16.58;66.41;99745.94;5030100;28;20315;-62
2023/04/08 11:03:14;;;;;;;0.50;0.50;;;;;;;16.66;64.55;99746.41;5030147;28;20582;-63
2023/04/08 11:05:42;;;;;;;0.70;0.70;;;;;;;16.71;63.75;99752.19;5030656;28;20733;-62
2023/04/08 11:08:09;;;;;;;0.80;0.80;;;;;;;16.60;64.34;99749.31;5029860;28;20625;-62
2023/04/08 11:10:38;;;;;;;0.50;0.50;;;;;;;16.67;64.74;99745.47;5030313;28;20201;-62
2023/04/08 11:13:08;;;;;;;0.80;0.80;;;;;;;16.42;64.35;99739.81;5030270;28;20653;-62
2023/04/08 11:15:36;;;;;;;0.50;0.50;;;;;;;16.35;66.26;99735.03;5030388;28;20650;-62
2023/04/08 11:18:03;;;;;;;0.63;0.63;;;;;;;16.25;65.91;99738.03;5029931;28;20259;-63
2023/04/08 11:20:33;;;;;;;0.57;0.57;;;;;;;16.20;66.98;99719.31;5030205;28;20593;-62
2023/04/08 11:23:01;;;;;;;1.57;1.57;;;;;;;16.47;66.69;99721.47;5030328;28;20666;-62
2023/04/08 11:25:28;;;;;;;0.57;0.57;;;;;;;16.26;66.05;99738.88;5030277;28;20259;-62
2023/04/08 11:27:55;;;;;;;0.70;0.70;;;;;;;16.32;67.23;99728.22;5033229;28;20205;-62
2023/04/08 11:30:23;;;;;;;0.50;0.50;;;;;;;16.48;66.31;99725.75;5032729;28;20581;-62
2023/04/08 11:32:50;;;;;;;0.60;0.60;;;;;;;16.59;65.13;99719.16;5033614;28;20208;-62
2023/04/08 11:35:17;;;;;;;2.00;2.00;;;;;;;16.57;65.86;99713.22;5033780;28;20256;-62
2023/04/08 11:37:46;;;;;;;1.03;0.90;;;;;;;16.62;64.62;99716.41;5032186;28;20205;-62